sensor_id;sensor_type;location;lat;lon;timestamp;pressure;altitude;pressure_sealevel;temperature;humidity
55187;BME280;55457;52.002;5.464;2022-09-12T00:01:34;101552.09;;;24.57;55.30
55187;BME280;55457;52.002;5.464;2022-09-12T00:04:00;101543.94;;;24.57;55.24
55187;BME280;55457;52.002;5.464;2022-09-12T00:06:34;101543.09;;;24.57;55.26
55187;BME280;55457;52.002;5.464;2022-09-12T00:09:03;101535.75;;;24.57;55.37
55187;BME280;55457;52.002;5.464;2022-09-12T00:11:29;101543.94;;;24.57;55.33
55187;BME280;55457;52.002;5.464;2022-09-12T00:14:00;101544.19;;;24.56;55.26
55187;BME280;55457;52.002;5.464;2022-09-12T00:16:27;101543.38;;;24.55;55.30
55187;BME280;55457;52.002;5.464;2022-09-12T00:18:53;101536.03;;;24.56;55.26
55187;BME280;55457;52.002;5.464;2022-09-12T00:21:19;101537.94;;;24.55;55.14
55187;BME280;55457;52.002;5.464;2022-09-12T00:23:46;101530.84;;;24.54;55.21
55187;BME280;55457;52.002;5.464;2022-09-12T00:26:12;101533.56;;;24.54;54.99
55187;BME280;55457;52.002;5.464;2022-09-12T00:28:39;101539.00;;;24.54;55.13
55187;BME280;55457;52.002;5.464;2022-09-12T00:31:07;101535.47;;;24.54;55.14
55187;BME280;55457;52.002;5.464;2022-09-12T00:33:34;101530.25;;;24.52;55.07
55187;BME280;55457;52.002;5.464;2022-09-12T00:36:06;101528.09;;;24.54;55.24
55187;BME280;55457;52.002;5.464;2022-09-12T00:38:33;101524.56;;;24.54;55.14
55187;BME280;55457;52.002;5.464;2022-09-12T00:41:03;101517.44;;;24.53;55.25
55187;BME280;55457;52.002;5.464;2022-09-12T00:45:56;101522.91;;;24.53;55.21
55187;BME280;55457;52.002;5.464;2022-09-12T00:48:29;101521.00;;;24.53;55.06
55187;BME280;55457;52.002;5.464;2022-09-12T00:50:56;101523.16;;;24.51;55.16
55187;BME280;55457;52.002;5.464;2022-09-12T00:53:22;101519.34;;;24.52;55.23
55187;BME280;55457;52.002;5.464;2022-09-12T00:55:49;101519.34;;;24.52;55.25
55187;BME280;55457;52.002;5.464;2022-09-12T00:58:22;101511.44;;;24.51;55.17
55187;BME280;55457;52.002;5.464;2022-09-12T01:00:50;101517.72;;;24.51;55.15
55187;BME280;55457;52.002;5.464;2022-09-12T01:03:17;101512.53;;;24.50;55.07
55187;BME280;55457;52.002;5.464;2022-09-12T01:06:14;101513.34;;;24.50;55.11
55187;BME280;55457;52.002;5.464;2022-09-12T01:08:42;101512.53;;;24.50;55.14
55187;BME280;55457;52.002;5.464;2022-09-12T01:11:10;101499.72;;;24.50;55.24
55187;BME280;55457;52.002;5.464;2022-09-12T01:13:36;101506.25;;;24.49;55.08
55187;BME280;55457;52.002;5.464;2022-09-12T01:16:03;101500.81;;;24.49;55.19
55187;BME280;55457;52.002;5.464;2022-09-12T01:21:28;101500.81;;;24.49;54.87
55187;BME280;55457;52.002;5.464;2022-09-12T01:30:14;101496.41;;;24.48;54.81
55187;BME280;55457;52.002;5.464;2022-09-12T01:35:34;101481.97;;;24.47;55.08
55187;BME280;55457;52.002;5.464;2022-09-12T01:41:01;101478.41;;;24.47;54.86
55187;BME280;55457;52.002;5.464;2022-09-12T01:46:16;101475.13;;;24.45;54.92
55187;BME280;55457;52.002;5.464;2022-09-12T01:48:53;101479.50;;;24.46;54.89
55187;BME280;55457;52.002;5.464;2022-09-12T01:51:25;101476.78;;;24.46;54.90
55187;BME280;55457;52.002;5.464;2022-09-12T01:54:00;101472.41;;;24.45;54.70
55187;BME280;55457;52.002;5.464;2022-09-12T01:56:31;101469.69;;;24.45;54.87
55187;BME280;55457;52.002;5.464;2022-09-12T01:59:03;101461.53;;;24.45;54.88
55187;BME280;55457;52.002;5.464;2022-09-12T02:01:32;101459.88;;;24.44;55.05
55187;BME280;55457;52.002;5.464;2022-09-12T02:04:14;101460.69;;;24.44;54.91
55187;BME280;55457;52.002;5.464;2022-09-12T02:06:54;101453.34;;;24.45;55.12
55187;BME280;55457;52.002;5.464;2022-09-12T02:09:28;101455.25;;;24.44;54.79
55187;BME280;55457;52.002;5.464;2022-09-12T02:11:59;101456.06;;;24.45;55.04
55187;BME280;55457;52.002;5.464;2022-09-12T02:14:37;101452.75;;;24.43;54.89
55187;BME280;55457;52.002;5.464;2022-09-12T02:17:10;101449.22;;;24.42;54.80
55187;BME280;55457;52.002;5.464;2022-09-12T02:19:42;101452.75;;;24.43;55.07
55187;BME280;55457;52.002;5.464;2022-09-12T02:22:13;101443.75;;;24.42;54.76
55187;BME280;55457;52.002;5.464;2022-09-12T02:24:42;101438.59;;;24.41;54.67
55187;BME280;55457;52.002;5.464;2022-09-12T02:27:15;101441.03;;;24.42;54.90
55187;BME280;55457;52.002;5.464;2022-09-12T02:29:42;101442.13;;;24.41;54.92
55187;BME280;55457;52.002;5.464;2022-09-12T02:34:51;101439.41;;;24.41;54.70
55187;BME280;55457;52.002;5.464;2022-09-12T02:38:02;101444.03;;;24.41;54.88
55187;BME280;55457;52.002;5.464;2022-09-12T02:40:07;101445.66;;;24.42;54.73
55187;BME280;55457;52.002;5.464;2022-09-12T02:42:35;101446.75;;;24.41;55.05
55187;BME280;55457;52.002;5.464;2022-09-12T02:45:01;101440.47;;;24.40;54.89
55187;BME280;55457;52.002;5.464;2022-09-12T02:47:35;101435.84;;;24.41;54.75
55187;BME280;55457;52.002;5.464;2022-09-12T02:50:01;101435.31;;;24.39;54.71
55187;BME280;55457;52.002;5.464;2022-09-12T02:52:29;101431.50;;;24.40;54.92
55187;BME280;55457;52.002;5.464;2022-09-12T02:54:56;101426.03;;;24.40;54.77
55187;BME280;55457;52.002;5.464;2022-09-12T02:57:22;101426.03;;;24.40;55.09
55187;BME280;55457;52.002;5.464;2022-09-12T02:59:49;101421.69;;;24.39;54.72
55187;BME280;55457;52.002;5.464;2022-09-12T03:02:39;101423.31;;;24.40;54.97
55187;BME280;55457;52.002;5.464;2022-09-12T03:05:18;101427.13;;;24.39;54.77
55187;BME280;55457;52.002;5.464;2022-09-12T03:13:48;101416.47;;;24.37;54.76
55187;BME280;55457;52.002;5.464;2022-09-12T03:16:24;101415.66;;;24.37;54.80
55187;BME280;55457;52.002;5.464;2022-09-12T03:19:43;101417.56;;;24.36;54.66
55187;BME280;55457;52.002;5.464;2022-09-12T03:25:02;101416.72;;;24.36;54.86
55187;BME280;55457;52.002;5.464;2022-09-12T03:27:41;101421.09;;;24.37;54.86
55187;BME280;55457;52.002;5.464;2022-09-12T03:30:09;101414.00;;;24.36;54.92
55187;BME280;55457;52.002;5.464;2022-09-12T03:32:41;101403.13;;;24.36;54.66
55187;BME280;55457;52.002;5.464;2022-09-12T03:35:07;101410.19;;;24.37;54.84
55187;BME280;55457;52.002;5.464;2022-09-12T03:37:33;101406.06;;;24.34;54.62
55187;BME280;55457;52.002;5.464;2022-09-12T03:39:59;101403.13;;;24.36;54.77
55187;BME280;55457;52.002;5.464;2022-09-12T03:42:25;101402.28;;;24.35;54.65
55187;BME280;55457;52.002;5.464;2022-09-12T03:44:50;101396.00;;;24.35;54.77
55187;BME280;55457;52.002;5.464;2022-09-12T03:47:15;101389.72;;;24.34;54.80
55187;BME280;55457;52.002;5.464;2022-09-12T03:49:40;101385.09;;;24.35;54.83
55187;BME280;55457;52.002;5.464;2022-09-12T03:52:06;101384.28;;;24.34;54.75
55187;BME280;55457;52.002;5.464;2022-09-12T03:54:32;101383.47;;;24.34;54.71
55187;BME280;55457;52.002;5.464;2022-09-12T03:56:57;101393.28;;;24.35;55.07
55187;BME280;55457;52.002;5.464;2022-09-12T03:59:22;101384.53;;;24.33;54.49
55187;BME280;55457;52.002;5.464;2022-09-12T04:01:47;101393.53;;;24.33;54.54
55187;BME280;55457;52.002;5.464;2022-09-12T04:04:13;101398.16;;;24.33;54.94
55187;BME280;55457;52.002;5.464;2022-09-12T04:06:38;101380.16;;;24.32;54.74
55187;BME280;55457;52.002;5.464;2022-09-12T04:09:04;101387.28;;;24.33;54.78
55187;BME280;55457;52.002;5.464;2022-09-12T04:11:29;101388.09;;;24.33;54.78
55187;BME280;55457;52.002;5.464;2022-09-12T04:13:56;101383.97;;;24.31;54.75
55187;BME280;55457;52.002;5.464;2022-09-12T04:16:21;101387.28;;;24.33;54.46
55187;BME280;55457;52.002;5.464;2022-09-12T04:18:47;101378.50;;;24.31;54.67
55187;BME280;55457;52.002;5.464;2022-09-12T04:21:17;101380.97;;;24.32;54.70
55187;BME280;55457;52.002;5.464;2022-09-12T04:23:44;101379.34;;;24.31;54.81
55187;BME280;55457;52.002;5.464;2022-09-12T04:26:10;101385.59;;;24.32;54.73
55187;BME280;55457;52.002;5.464;2022-09-12T04:28:36;101386.69;;;24.31;54.76
55187;BME280;55457;52.002;5.464;2022-09-12T04:31:07;101378.50;;;24.31;54.74
55187;BME280;55457;52.002;5.464;2022-09-12T04:33:34;101381.25;;;24.31;54.91
55187;BME280;55457;52.002;5.464;2022-09-12T04:36:14;101385.03;;;24.30;54.68
55187;BME280;55457;52.002;5.464;2022-09-12T04:38:44;101382.31;;;24.30;54.81
55187;BME280;55457;52.002;5.464;2022-09-12T04:41:15;101383.97;;;24.31;54.61
55187;BME280;55457;52.002;5.464;2022-09-12T04:43:42;101382.31;;;24.30;54.82
55187;BME280;55457;52.002;5.464;2022-09-12T04:46:09;101377.69;;;24.30;54.58
55187;BME280;55457;52.002;5.464;2022-09-12T04:48:36;101374.16;;;24.30;54.67
55187;BME280;55457;52.002;5.464;2022-09-12T04:51:16;101379.59;;;24.30;54.68
55187;BME280;55457;52.002;5.464;2022-09-12T04:53:42;101376.06;;;24.29;54.68
55187;BME280;55457;52.002;5.464;2022-09-12T04:56:09;101372.50;;;24.29;54.64
55187;BME280;55457;52.002;5.464;2022-09-12T04:58:36;101375.25;;;24.29;54.63
55187;BME280;55457;52.002;5.464;2022-09-12T05:01:12;101380.69;;;24.29;54.70
55187;BME280;55457;52.002;5.464;2022-09-12T05:03:38;101380.41;;;24.30;54.77
55187;BME280;55457;52.002;5.464;2022-09-12T05:06:06;101371.44;;;24.30;54.67
55187;BME280;55457;52.002;5.464;2022-09-12T05:08:33;101369.78;;;24.29;54.65
55187;BME280;55457;52.002;5.464;2022-09-12T05:11:13;101370.59;;;24.29;54.72
55187;BME280;55457;52.002;5.464;2022-09-12T05:13:38;101363.53;;;24.28;54.77
55187;BME280;55457;52.002;5.464;2022-09-12T05:16:06;101371.44;;;24.30;54.76
55187;BME280;55457;52.002;5.464;2022-09-12T05:18:32;101374.41;;;24.28;54.70
55187;BME280;55457;52.002;5.464;2022-09-12T05:20:59;101368.97;;;24.28;54.52
55187;BME280;55457;52.002;5.464;2022-09-12T05:23:25;101374.16;;;24.30;54.84
55187;BME280;55457;52.002;5.464;2022-09-12T05:25:53;101375.25;;;24.29;54.80
55187;BME280;55457;52.002;5.464;2022-09-12T05:28:19;101372.50;;;24.29;54.85
55187;BME280;55457;52.002;5.464;2022-09-12T05:30:45;101369.78;;;24.29;54.85
55187;BME280;55457;52.002;5.464;2022-09-12T05:33:11;101376.06;;;24.29;54.70
55187;BME280;55457;52.002;5.464;2022-09-12T05:35:37;101376.31;;;24.28;54.86
55187;BME280;55457;52.002;5.464;2022-09-12T05:38:03;101372.50;;;24.29;54.48
55187;BME280;55457;52.002;5.464;2022-09-12T05:40:30;101380.69;;;24.29;54.84
55187;BME280;55457;52.002;5.464;2022-09-12T05:42:55;101376.88;;;24.30;54.54
55187;BME280;55457;52.002;5.464;2022-09-12T05:45:21;101367.06;;;24.29;54.70
55187;BME280;55457;52.002;5.464;2022-09-12T05:47:47;101368.16;;;24.28;54.82
55187;BME280;55457;52.002;5.464;2022-09-12T05:50:13;101375.25;;;24.29;54.66
55187;BME280;55457;52.002;5.464;2022-09-12T05:52:38;101369.78;;;24.29;54.86
55187;BME280;55457;52.002;5.464;2022-09-12T05:55:04;101362.72;;;24.28;54.65
55187;BME280;55457;52.002;5.464;2022-09-12T05:57:30;101362.72;;;24.28;54.56
55187;BME280;55457;52.002;5.464;2022-09-12T05:59:55;101369.78;;;24.29;54.51
55187;BME280;55457;52.002;5.464;2022-09-12T06:02:20;101366.25;;;24.28;54.55
55187;BME280;55457;52.002;5.464;2022-09-12T06:04:46;101368.97;;;24.28;54.64
55187;BME280;55457;52.002;5.464;2022-09-12T06:07:11;101375.25;;;24.29;54.48
55187;BME280;55457;52.002;5.464;2022-09-12T06:09:37;101364.34;;;24.29;54.33
55187;BME280;55457;52.002;5.464;2022-09-12T06:12:03;101375.25;;;24.29;54.57
55187;BME280;55457;52.002;5.464;2022-09-12T06:14:28;101364.84;;;24.26;54.51
55187;BME280;55457;52.002;5.464;2022-09-12T06:16:54;101372.75;;;24.27;54.64
55187;BME280;55457;52.002;5.464;2022-09-12T06:19:21;101369.78;;;24.29;54.43
55187;BME280;55457;52.002;5.464;2022-09-12T06:21:48;101368.97;;;24.28;54.43
55187;BME280;55457;52.002;5.464;2022-09-12T06:24:14;101370.88;;;24.28;54.57
55187;BME280;55457;52.002;5.464;2022-09-12T06:26:40;101371.94;;;24.27;54.50
55187;BME280;55457;52.002;5.464;2022-09-12T06:29:06;101370.03;;;24.27;54.70
55187;BME280;55457;52.002;5.464;2022-09-12T06:31:35;101370.03;;;24.27;54.45
55187;BME280;55457;52.002;5.464;2022-09-12T06:34:03;101369.22;;;24.27;54.51
55187;BME280;55457;52.002;5.464;2022-09-12T06:36:36;101363.75;;;24.27;54.60
55187;BME280;55457;52.002;5.464;2022-09-12T06:39:05;101365.44;;;24.28;54.45
55187;BME280;55457;52.002;5.464;2022-09-12T06:41:31;101359.13;;;24.27;54.73
55187;BME280;55457;52.002;5.464;2022-09-12T06:43:57;101358.91;;;24.29;54.58
55187;BME280;55457;52.002;5.464;2022-09-12T06:46:24;101366.25;;;24.28;54.38
55187;BME280;55457;52.002;5.464;2022-09-12T06:48:49;101359.97;;;24.28;54.63
55187;BME280;55457;52.002;5.464;2022-09-12T06:51:16;101364.34;;;24.29;54.44
55187;BME280;55457;52.002;5.464;2022-09-12T06:53:43;101358.06;;;24.28;54.45
55187;BME280;55457;52.002;5.464;2022-09-12T06:56:19;101356.16;;;24.29;54.38
55187;BME280;55457;52.002;5.464;2022-09-12T06:58:46;101358.06;;;24.28;54.62
55187;BME280;55457;52.002;5.464;2022-09-12T07:01:15;101357.00;;;24.29;54.41
55187;BME280;55457;52.002;5.464;2022-09-12T07:03:41;101357.81;;;24.30;54.62
55187;BME280;55457;52.002;5.464;2022-09-12T07:06:09;101351.28;;;24.31;54.49
55187;BME280;55457;52.002;5.464;2022-09-12T07:08:35;101352.38;;;24.30;54.24
55187;BME280;55457;52.002;5.464;2022-09-12T07:11:22;101351.28;;;24.31;54.36
55187;BME280;55457;52.002;5.464;2022-09-12T07:13:50;101361.09;;;24.32;54.40
55187;BME280;55457;52.002;5.464;2022-09-12T07:16:16;101357.53;;;24.31;54.37
55187;BME280;55457;52.002;5.464;2022-09-12T07:18:42;101352.91;;;24.32;54.32
55187;BME280;55457;52.002;5.464;2022-09-12T07:21:12;101347.47;;;24.32;54.42
55187;BME280;55457;52.002;5.464;2022-09-12T07:23:37;101347.47;;;24.32;54.25
55187;BME280;55457;52.002;5.464;2022-09-12T07:26:04;101352.91;;;24.32;54.42
55187;BME280;55457;52.002;5.464;2022-09-12T07:28:31;101357.31;;;24.33;54.40
55187;BME280;55457;52.002;5.464;2022-09-12T07:30:57;101355.41;;;24.33;54.38
55187;BME280;55457;52.002;5.464;2022-09-12T07:33:28;101357.84;;;24.35;54.31
55187;BME280;55457;52.002;5.464;2022-09-12T07:35:53;101363.31;;;24.35;54.26
55187;BME280;55457;52.002;5.464;2022-09-12T07:38:20;101360.09;;;24.38;54.45
55187;BME280;55457;52.002;5.464;2022-09-12T07:40:46;101358.44;;;24.37;54.47
55187;BME280;55457;52.002;5.464;2022-09-12T07:43:11;101354.91;;;24.36;54.37
55187;BME280;55457;52.002;5.464;2022-09-12T07:45:36;101363.88;;;24.37;54.35
55187;BME280;55457;52.002;5.464;2022-09-12T07:48:02;101359.25;;;24.37;54.32
55187;BME280;55457;52.002;5.464;2022-09-12T07:50:28;101357.34;;;24.38;54.37
55187;BME280;55457;52.002;5.464;2022-09-12T07:52:53;101362.81;;;24.38;54.76
55187;BME280;55457;52.002;5.464;2022-09-12T07:55:20;101363.66;;;24.38;54.50
55187;BME280;55457;52.002;5.464;2022-09-12T07:57:48;101361.75;;;24.39;54.57
55187;BME280;55457;52.002;5.464;2022-09-12T08:00:14;101357.94;;;24.40;54.71
55187;BME280;55457;52.002;5.464;2022-09-12T08:02:40;101367.75;;;24.41;54.68
55187;BME280;55457;52.002;5.464;2022-09-12T08:05:05;101366.94;;;24.40;54.75
55187;BME280;55457;52.002;5.464;2022-09-12T08:07:31;101365.56;;;24.43;54.92
55187;BME280;55457;52.002;5.464;2022-09-12T08:09:56;101368.88;;;24.45;54.85
55187;BME280;55457;52.002;5.464;2022-09-12T08:12:21;101363.16;;;24.46;54.78
55187;BME280;55457;52.002;5.464;2022-09-12T08:14:48;101362.09;;;24.47;55.06
55187;BME280;55457;52.002;5.464;2022-09-12T08:17:14;101359.13;;;24.49;55.08
55187;BME280;55457;52.002;5.464;2022-09-12T08:19:39;101362.72;;;24.55;55.28
55187;BME280;55457;52.002;5.464;2022-09-12T08:22:04;101372.00;;;24.59;55.28
55187;BME280;55457;52.002;5.464;2022-09-12T08:24:30;101367.94;;;24.61;55.44
55187;BME280;55457;52.002;5.464;2022-09-12T08:26:57;101366.59;;;24.64;55.71
55187;BME280;55457;52.002;5.464;2022-09-12T08:29:22;101371.25;;;24.68;55.63
55187;BME280;55457;52.002;5.464;2022-09-12T08:31:48;101365.56;;;24.70;55.66
55187;BME280;55457;52.002;5.464;2022-09-12T08:34:13;101368.56;;;24.73;55.71
55187;BME280;55457;52.002;5.464;2022-09-12T08:36:41;101367.53;;;24.75;55.52
55187;BME280;55457;52.002;5.464;2022-09-12T08:39:06;101353.03;;;24.74;55.64
55187;BME280;55457;52.002;5.464;2022-09-12T08:41:34;101367.25;;;24.76;55.76
55187;BME280;55457;52.002;5.464;2022-09-12T08:49:41;101362.66;;;24.82;55.39
55187;BME280;55457;52.002;5.464;2022-09-12T08:52:13;101365.94;;;24.84;55.50
55187;BME280;55457;52.002;5.464;2022-09-12T08:54:42;101369.25;;;24.86;55.39
55187;BME280;55457;52.002;5.464;2022-09-12T08:57:10;101359.97;;;24.87;55.26
55187;BME280;55457;52.002;5.464;2022-09-12T08:59:41;101360.28;;;24.90;55.39
55187;BME280;55457;52.002;5.464;2022-09-12T09:08:03;101351.88;;;24.97;55.50
55187;BME280;55457;52.002;5.464;2022-09-12T09:13:24;101348.09;;;25.03;55.47
55187;BME280;55457;52.002;5.464;2022-09-12T09:16:21;101350.88;;;25.08;55.17
55187;BME280;55457;52.002;5.464;2022-09-12T09:18:50;101350.38;;;25.11;55.28
55187;BME280;55457;52.002;5.464;2022-09-12T09:24:12;101354.22;;;25.20;55.33
55187;BME280;55457;52.002;5.464;2022-09-12T09:26:42;101347.16;;;25.24;55.18
55187;BME280;55457;52.002;5.464;2022-09-12T09:29:19;101347.44;;;25.28;55.02
55187;BME280;55457;52.002;5.464;2022-09-12T09:31:52;101346.66;;;25.33;55.00
55187;BME280;55457;52.002;5.464;2022-09-12T09:42:51;101338.91;;;25.14;54.31
55187;BME280;55457;52.002;5.464;2022-09-12T09:45:23;101342.41;;;25.10;54.10
55187;BME280;55457;52.002;5.464;2022-09-12T09:48:20;101344.88;;;25.06;54.56
55187;BME280;55457;52.002;5.464;2022-09-12T09:50:48;101346.44;;;25.02;54.37
55187;BME280;55457;52.002;5.464;2022-09-12T09:56:02;101333.88;;;24.96;54.49
55187;BME280;55457;52.002;5.464;2022-09-12T09:58:33;101334.09;;;24.94;54.87
55187;BME280;55457;52.002;5.464;2022-09-12T10:01:04;101326.47;;;24.91;54.74
55187;BME280;55457;52.002;5.464;2022-09-12T10:03:37;101323.44;;;24.88;54.72
55187;BME280;55457;52.002;5.464;2022-09-12T10:06:29;101314.72;;;24.86;54.99
55187;BME280;55457;52.002;5.464;2022-09-12T10:09:06;101309.78;;;24.83;54.72
55187;BME280;55457;52.002;5.464;2022-09-12T10:11:33;101311.94;;;24.81;54.85
55187;BME280;55457;52.002;5.464;2022-09-12T10:13:58;101313.03;;;24.80;54.83
55187;BME280;55457;52.002;5.464;2022-09-12T10:16:34;101314.09;;;24.79;54.64
55187;BME280;55457;52.002;5.464;2022-09-12T10:19:20;101308.66;;;24.79;54.82
55187;BME280;55457;52.002;5.464;2022-09-12T10:21:55;101290.66;;;24.78;54.40
55187;BME280;55457;52.002;5.464;2022-09-12T10:24:22;101293.66;;;24.76;54.11
55187;BME280;55457;52.002;5.464;2022-09-12T10:26:52;101293.66;;;24.76;53.99
55187;BME280;55457;52.002;5.464;2022-09-12T10:29:24;101293.66;;;24.76;54.03
55187;BME280;55457;52.002;5.464;2022-09-12T10:31:52;101292.84;;;24.76;53.93
55187;BME280;55457;52.002;5.464;2022-09-12T10:34:24;101292.03;;;24.75;53.75
55187;BME280;55457;52.002;5.464;2022-09-12T10:36:54;101282.44;;;24.72;53.96
55187;BME280;55457;52.002;5.464;2022-09-12T10:39:23;101281.63;;;24.72;54.20
55187;BME280;55457;52.002;5.464;2022-09-12T10:41:49;101281.63;;;24.72;53.92
55187;BME280;55457;52.002;5.464;2022-09-12T10:44:24;101277.25;;;24.71;54.17
55187;BME280;55457;52.002;5.464;2022-09-12T10:46:50;101270.72;;;24.72;54.15
55187;BME280;55457;52.002;5.464;2022-09-12T10:51:46;101264.19;;;24.73;54.12
55187;BME280;55457;52.002;5.464;2022-09-12T10:54:15;101259.00;;;24.71;54.01
55187;BME280;55457;52.002;5.464;2022-09-12T11:02:27;101255.72;;;24.69;53.92
55187;BME280;55457;52.002;5.464;2022-09-12T11:11:08;101250.56;;;24.73;53.99
55187;BME280;55457;52.002;5.464;2022-09-12T11:16:22;101255.78;;;24.75;53.88
55187;BME280;55457;52.002;5.464;2022-09-12T11:21:51;101261.75;;;24.77;53.86
55187;BME280;55457;52.002;5.464;2022-09-12T11:27:03;101252.50;;;24.78;53.88
55187;BME280;55457;52.002;5.464;2022-09-12T11:35:31;101253.63;;;24.82;53.49
55187;BME280;55457;52.002;5.464;2022-09-12T11:38:22;101252.81;;;24.81;53.48
55187;BME280;55457;52.002;5.464;2022-09-12T11:40:49;101245.44;;;24.82;53.60
55187;BME280;55457;52.002;5.464;2022-09-12T11:43:45;101238.09;;;24.82;53.45
55187;BME280;55457;52.002;5.464;2022-09-12T11:46:35;101234.53;;;24.82;53.19
55187;BME280;55457;52.002;5.464;2022-09-12T11:49:05;101244.34;;;24.83;53.11
55187;BME280;55457;52.002;5.464;2022-09-12T11:51:44;101257.44;;;24.81;52.66
55187;BME280;55457;52.002;5.464;2022-09-12T11:54:39;101247.63;;;24.80;53.06
55187;BME280;55457;52.002;5.464;2022-09-12T11:57:25;101246.53;;;24.81;53.26
55187;BME280;55457;52.002;5.464;2022-09-12T11:59:57;101241.09;;;24.81;53.14
55187;BME280;55457;52.002;5.464;2022-09-12T12:02:34;101232.63;;;24.82;53.17
55187;BME280;55457;52.002;5.464;2022-09-12T12:05:24;101226.38;;;24.82;53.39
55187;BME280;55457;52.002;5.464;2022-09-12T12:07:55;101229.63;;;24.84;53.61
55187;BME280;55457;52.002;5.464;2022-09-12T12:10:41;101222.84;;;24.86;53.66
55187;BME280;55457;52.002;5.464;2022-09-12T12:13:20;101230.75;;;24.88;53.81
55187;BME280;55457;52.002;5.464;2022-09-12T12:15:51;101222.31;;;24.89;53.69
55187;BME280;55457;52.002;5.464;2022-09-12T12:18:25;101212.22;;;24.90;52.80
55187;BME280;55457;52.002;5.464;2022-09-12T12:20:52;101219.31;;;24.91;53.00
55187;BME280;55457;52.002;5.464;2022-09-12T12:23:30;101222.59;;;24.93;52.88
55187;BME280;55457;52.002;5.464;2022-09-12T12:25:58;101216.88;;;24.94;53.25
55187;BME280;55457;52.002;5.464;2022-09-12T12:31:15;101221.53;;;24.99;52.38
55187;BME280;55457;52.002;5.464;2022-09-12T12:36:27;101208.47;;;25.01;52.63
55187;BME280;55457;52.002;5.464;2022-09-12T12:38:53;101207.09;;;25.04;52.02
55187;BME280;55457;52.002;5.464;2022-09-12T12:43:46;101199.47;;;25.06;52.20
55187;BME280;55457;52.002;5.464;2022-09-12T12:46:19;101204.09;;;25.05;51.96
55187;BME280;55457;52.002;5.464;2022-09-12T12:51:28;101194.91;;;25.06;51.82
55187;BME280;55457;52.002;5.464;2022-09-12T12:53:55;101194.91;;;25.06;51.90
55187;BME280;55457;52.002;5.464;2022-09-12T12:56:47;101185.63;;;25.07;52.25
55187;BME280;55457;52.002;5.464;2022-09-12T12:59:20;101180.16;;;25.07;51.93
55187;BME280;55457;52.002;5.464;2022-09-12T13:01:49;101180.97;;;25.08;52.06
55187;BME280;55457;52.002;5.464;2022-09-12T13:04:18;101167.06;;;25.09;52.08
55187;BME280;55457;52.002;5.464;2022-09-12T13:07:05;101163.25;;;25.10;51.76
55187;BME280;55457;52.002;5.464;2022-09-12T13:09:45;101171.19;;;25.12;52.17
55187;BME280;55457;52.002;5.464;2022-09-12T13:12:26;101162.19;;;25.11;51.66
55187;BME280;55457;52.002;5.464;2022-09-12T13:14:58;101165.47;;;25.13;51.86
55187;BME280;55457;52.002;5.464;2022-09-12T13:17:29;101157.81;;;25.15;51.54
55187;BME280;55457;52.002;5.464;2022-09-12T13:20:23;101149.38;;;25.17;51.73
55187;BME280;55457;52.002;5.464;2022-09-12T13:22:51;101148.00;;;25.19;51.52
55187;BME280;55457;52.002;5.464;2022-09-12T13:28:15;101139.31;;;25.22;51.41
55187;BME280;55457;52.002;5.464;2022-09-12T13:30:45;101144.75;;;25.22;51.49
55187;BME280;55457;52.002;5.464;2022-09-12T13:33:19;101140.94;;;25.23;51.58
55187;BME280;55457;52.002;5.464;2022-09-12T13:38:40;101134.41;;;25.24;50.87
55187;BME280;55457;52.002;5.464;2022-09-12T13:43:51;101127.84;;;25.25;50.92
55187;BME280;55457;52.002;5.464;2022-09-12T13:46:25;101138.22;;;25.29;51.14
55187;BME280;55457;52.002;5.464;2022-09-12T13:48:54;101128.94;;;25.30;50.69
55187;BME280;55457;52.002;5.464;2022-09-12T13:51:23;101128.94;;;25.30;50.95
55187;BME280;55457;52.002;5.464;2022-09-12T13:53:49;101130.03;;;25.29;51.19
55187;BME280;55457;52.002;5.464;2022-09-12T13:56:17;101128.41;;;25.28;50.96
55187;BME280;55457;52.002;5.464;2022-09-12T13:58:57;101127.31;;;25.29;51.16
55187;BME280;55457;52.002;5.464;2022-09-12T14:01:36;101125.13;;;25.31;50.83
55187;BME280;55457;52.002;5.464;2022-09-12T14:04:14;101110.38;;;25.32;50.34
55187;BME280;55457;52.002;5.464;2022-09-12T14:06:59;101121.31;;;25.32;50.04
55187;BME280;55457;52.002;5.464;2022-09-12T14:09:39;101124.88;;;25.32;50.50
55187;BME280;55457;52.002;5.464;2022-09-12T14:12:13;101114.22;;;25.31;50.64
55187;BME280;55457;52.002;5.464;2022-09-12T14:14:46;101112.59;;;25.30;50.51
55187;BME280;55457;52.002;5.464;2022-09-12T14:17:22;101112.59;;;25.30;50.98
55187;BME280;55457;52.002;5.464;2022-09-12T14:19:49;101108.75;;;25.31;50.49
55187;BME280;55457;52.002;5.464;2022-09-12T14:22:15;101108.75;;;25.31;50.41
55187;BME280;55457;52.002;5.464;2022-09-12T14:24:44;101097.84;;;25.31;50.54
55187;BME280;55457;52.002;5.464;2022-09-12T14:27:22;101097.03;;;25.30;50.51
55187;BME280;55457;52.002;5.464;2022-09-12T14:29:56;101085.59;;;25.28;50.53
55187;BME280;55457;52.002;5.464;2022-09-12T14:32:24;101082.03;;;25.28;50.21
55187;BME280;55457;52.002;5.464;2022-09-12T14:35:12;101074.09;;;25.26;50.72
55187;BME280;55457;52.002;5.464;2022-09-12T14:37:41;101064.56;;;25.23;50.52
55187;BME280;55457;52.002;5.464;2022-09-12T14:40:38;101062.94;;;25.22;50.79
55187;BME280;55457;52.002;5.464;2022-09-12T14:43:16;101064.84;;;25.22;51.10
55187;BME280;55457;52.002;5.464;2022-09-12T14:45:51;101067.81;;;25.20;51.30
55187;BME280;55457;52.002;5.464;2022-09-12T14:48:18;101073.56;;;25.19;51.21
55187;BME280;55457;52.002;5.464;2022-09-12T14:50:48;101067.28;;;25.18;51.30
55187;BME280;55457;52.002;5.464;2022-09-12T14:55:51;101058.56;;;25.16;50.94
55187;BME280;55457;52.002;5.464;2022-09-12T15:08:51;101063.75;;;25.23;50.64